< < Back
Terminal Aerodrome Forecast


Current Version              Previous Versions:   1  2  3  4  5  6  7  8  9  

Terminal Aerodrome Forecast

035
FTUS42 KCAE 011722
TAFAGS
TAF
KAGS 011722Z 0118/0218 00000KT P6SM SCT040
     FM020800 00000KT 4SM BR SKC=

Latest METAR

168
SAUS70 KWBC 012000 RRP
MTRAGS
METAR KAGS 011953Z VRB03KT 10SM SCT050 BKN065 32/19 A3006 RMK AO2 SLP178
T03170194


USA.gov is the U.S. government's official web portal to all federal, state and local government web resources and services.